sensor_id;sensor_type;location;lat;lon;timestamp;P1;durP1;ratioP1;P2;durP2;ratioP2
15667;SDS011;7934;48.710;9.024;2022-07-23T00:00:41;5.90;;;4.30;;
15667;SDS011;7934;48.710;9.024;2022-07-23T00:03:09;4.90;;;4.60;;
15667;SDS011;7934;48.710;9.024;2022-07-23T00:05:36;5.27;;;4.30;;
15667;SDS011;7934;48.710;9.024;2022-07-23T00:08:03;4.80;;;4.40;;
15667;SDS011;7934;48.710;9.024;2022-07-23T00:10:32;5.07;;;4.60;;
15667;SDS011;7934;48.710;9.024;2022-07-23T00:12:59;4.57;;;4.27;;
15667;SDS011;7934;48.710;9.024;2022-07-23T00:15:26;5.60;;;4.30;;
15667;SDS011;7934;48.710;9.024;2022-07-23T00:17:53;4.10;;;3.73;;
15667;SDS011;7934;48.710;9.024;2022-07-23T00:20:20;4.77;;;4.37;;
15667;SDS011;7934;48.710;9.024;2022-07-23T00:22:47;4.57;;;4.27;;
15667;SDS011;7934;48.710;9.024;2022-07-23T00:25:15;4.57;;;4.30;;
15667;SDS011;7934;48.710;9.024;2022-07-23T00:27:43;4.77;;;4.40;;
15667;SDS011;7934;48.710;9.024;2022-07-23T00:30:11;5.83;;;4.43;;
15667;SDS011;7934;48.710;9.024;2022-07-23T00:32:45;4.80;;;4.30;;
15667;SDS011;7934;48.710;9.024;2022-07-23T00:35:12;5.23;;;4.77;;
15667;SDS011;7934;48.710;9.024;2022-07-23T00:37:39;5.37;;;4.87;;
15667;SDS011;7934;48.710;9.024;2022-07-23T00:40:07;5.03;;;4.73;;
15667;SDS011;7934;48.710;9.024;2022-07-23T00:42:34;6.20;;;5.07;;
15667;SDS011;7934;48.710;9.024;2022-07-23T00:45:03;5.60;;;5.20;;
15667;SDS011;7934;48.710;9.024;2022-07-23T00:47:30;4.87;;;4.60;;
15667;SDS011;7934;48.710;9.024;2022-07-23T00:49:58;5.20;;;4.90;;
15667;SDS011;7934;48.710;9.024;2022-07-23T00:52:25;5.27;;;4.90;;
15667;SDS011;7934;48.710;9.024;2022-07-23T00:54:52;5.30;;;4.90;;
15667;SDS011;7934;48.710;9.024;2022-07-23T00:57:19;5.00;;;4.70;;
15667;SDS011;7934;48.710;9.024;2022-07-23T00:59:46;6.57;;;4.80;;
15667;SDS011;7934;48.710;9.024;2022-07-23T01:02:15;5.00;;;4.60;;
15667;SDS011;7934;48.710;9.024;2022-07-23T01:04:42;8.27;;;4.77;;
15667;SDS011;7934;48.710;9.024;2022-07-23T01:07:09;4.93;;;4.60;;
15667;SDS011;7934;48.710;9.024;2022-07-23T01:09:36;5.13;;;4.80;;
15667;SDS011;7934;48.710;9.024;2022-07-23T01:12:04;4.87;;;4.57;;
15667;SDS011;7934;48.710;9.024;2022-07-23T01:14:32;5.00;;;4.70;;
15667;SDS011;7934;48.710;9.024;2022-07-23T01:16:59;5.13;;;4.13;;
15667;SDS011;7934;48.710;9.024;2022-07-23T01:19:27;5.07;;;4.70;;
15667;SDS011;7934;48.710;9.024;2022-07-23T01:21:54;5.67;;;5.17;;
15667;SDS011;7934;48.710;9.024;2022-07-23T01:24:24;4.57;;;4.30;;
15667;SDS011;7934;48.710;9.024;2022-07-23T01:26:52;5.13;;;4.67;;
15667;SDS011;7934;48.710;9.024;2022-07-23T01:29:19;5.67;;;4.40;;
15667;SDS011;7934;48.710;9.024;2022-07-23T01:31:47;4.23;;;3.83;;
15667;SDS011;7934;48.710;9.024;2022-07-23T01:34:14;4.80;;;4.47;;
15667;SDS011;7934;48.710;9.024;2022-07-23T01:36:41;4.93;;;4.63;;
15667;SDS011;7934;48.710;9.024;2022-07-23T01:39:08;4.83;;;4.43;;
15667;SDS011;7934;48.710;9.024;2022-07-23T01:41:37;5.00;;;4.70;;
15667;SDS011;7934;48.710;9.024;2022-07-23T01:44:04;5.23;;;4.80;;
15667;SDS011;7934;48.710;9.024;2022-07-23T01:46:31;5.87;;;4.87;;
15667;SDS011;7934;48.710;9.024;2022-07-23T01:48:58;7.00;;;4.70;;
15667;SDS011;7934;48.710;9.024;2022-07-23T01:51:25;4.80;;;4.50;;
15667;SDS011;7934;48.710;9.024;2022-07-23T01:53:52;5.13;;;4.83;;
15667;SDS011;7934;48.710;9.024;2022-07-23T01:56:19;4.90;;;4.60;;
15667;SDS011;7934;48.710;9.024;2022-07-23T01:58:48;5.27;;;4.77;;
15667;SDS011;7934;48.710;9.024;2022-07-23T02:01:15;5.20;;;4.90;;
15667;SDS011;7934;48.710;9.024;2022-07-23T02:03:42;4.70;;;4.30;;
15667;SDS011;7934;48.710;9.024;2022-07-23T02:06:09;4.73;;;4.43;;
15667;SDS011;7934;48.710;9.024;2022-07-23T02:08:36;5.03;;;4.73;;
15667;SDS011;7934;48.710;9.024;2022-07-23T02:11:03;4.87;;;4.47;;
15667;SDS011;7934;48.710;9.024;2022-07-23T02:13:31;4.83;;;4.53;;
15667;SDS011;7934;48.710;9.024;2022-07-23T02:15:59;4.97;;;4.67;;
15667;SDS011;7934;48.710;9.024;2022-07-23T02:18:26;5.07;;;4.63;;
15667;SDS011;7934;48.710;9.024;2022-07-23T02:20:53;5.03;;;4.73;;
15667;SDS011;7934;48.710;9.024;2022-07-23T02:23:20;5.17;;;4.60;;
15667;SDS011;7934;48.710;9.024;2022-07-23T02:25:47;5.03;;;4.53;;
15667;SDS011;7934;48.710;9.024;2022-07-23T02:28:15;4.57;;;4.23;;
15667;SDS011;7934;48.710;9.024;2022-07-23T02:30:42;5.10;;;4.60;;
15667;SDS011;7934;48.710;9.024;2022-07-23T02:33:10;4.37;;;4.00;;
15667;SDS011;7934;48.710;9.024;2022-07-23T02:35:37;4.70;;;4.40;;
15667;SDS011;7934;48.710;9.024;2022-07-23T02:38:04;4.97;;;4.57;;
15667;SDS011;7934;48.710;9.024;2022-07-23T02:40:31;5.87;;;4.50;;
15667;SDS011;7934;48.710;9.024;2022-07-23T02:42:59;7.77;;;5.37;;
15667;SDS011;7934;48.710;9.024;2022-07-23T02:45:26;6.07;;;4.80;;
15667;SDS011;7934;48.710;9.024;2022-07-23T02:47:53;4.73;;;4.33;;
15667;SDS011;7934;48.710;9.024;2022-07-23T02:50:21;4.47;;;4.27;;
15667;SDS011;7934;48.710;9.024;2022-07-23T02:52:49;4.67;;;4.27;;
15667;SDS011;7934;48.710;9.024;2022-07-23T02:55:16;5.17;;;4.87;;
15667;SDS011;7934;48.710;9.024;2022-07-23T02:57:43;5.07;;;4.67;;
15667;SDS011;7934;48.710;9.024;2022-07-23T03:00:10;4.60;;;4.30;;
15667;SDS011;7934;48.710;9.024;2022-07-23T03:02:38;6.60;;;4.97;;
15667;SDS011;7934;48.710;9.024;2022-07-23T03:05:05;5.03;;;4.60;;
15667;SDS011;7934;48.710;9.024;2022-07-23T03:07:34;5.67;;;5.17;;
15667;SDS011;7934;48.710;9.024;2022-07-23T03:10:13;4.43;;;4.17;;
15667;SDS011;7934;48.710;9.024;2022-07-23T03:12:40;5.03;;;4.63;;
15667;SDS011;7934;48.710;9.024;2022-07-23T03:15:08;5.77;;;5.27;;
15667;SDS011;7934;48.710;9.024;2022-07-23T03:17:35;5.00;;;4.60;;
15667;SDS011;7934;48.710;9.024;2022-07-23T03:20:02;5.03;;;4.73;;
15667;SDS011;7934;48.710;9.024;2022-07-23T03:22:30;5.67;;;4.80;;
15667;SDS011;7934;48.710;9.024;2022-07-23T03:24:58;5.63;;;4.53;;
15667;SDS011;7934;48.710;9.024;2022-07-23T03:27:26;4.80;;;4.43;;
15667;SDS011;7934;48.710;9.024;2022-07-23T03:29:55;4.87;;;4.47;;
15667;SDS011;7934;48.710;9.024;2022-07-23T03:32:23;5.30;;;4.90;;
15667;SDS011;7934;48.710;9.024;2022-07-23T03:34:50;5.33;;;4.93;;
15667;SDS011;7934;48.710;9.024;2022-07-23T03:37:18;6.33;;;5.03;;
15667;SDS011;7934;48.710;9.024;2022-07-23T03:39:45;5.23;;;4.73;;
15667;SDS011;7934;48.710;9.024;2022-07-23T03:42:13;5.10;;;4.70;;
15667;SDS011;7934;48.710;9.024;2022-07-23T03:44:41;5.23;;;4.93;;
15667;SDS011;7934;48.710;9.024;2022-07-23T03:47:08;5.00;;;4.70;;
15667;SDS011;7934;48.710;9.024;2022-07-23T03:49:35;5.40;;;5.00;;
15667;SDS011;7934;48.710;9.024;2022-07-23T03:52:02;5.10;;;4.80;;
15667;SDS011;7934;48.710;9.024;2022-07-23T03:54:29;5.37;;;4.87;;
15667;SDS011;7934;48.710;9.024;2022-07-23T03:56:56;5.73;;;5.30;;
15667;SDS011;7934;48.710;9.024;2022-07-23T03:59:25;5.57;;;5.20;;
15667;SDS011;7934;48.710;9.024;2022-07-23T04:01:52;5.47;;;4.97;;
15667;SDS011;7934;48.710;9.024;2022-07-23T04:04:19;5.40;;;5.00;;
15667;SDS011;7934;48.710;9.024;2022-07-23T04:06:46;5.67;;;5.17;;
15667;SDS011;7934;48.710;9.024;2022-07-23T04:09:13;5.13;;;4.73;;
15667;SDS011;7934;48.710;9.024;2022-07-23T04:11:41;5.53;;;5.03;;
15667;SDS011;7934;48.710;9.024;2022-07-23T04:14:08;4.90;;;4.50;;
15667;SDS011;7934;48.710;9.024;2022-07-23T04:16:37;5.50;;;5.10;;
15667;SDS011;7934;48.710;9.024;2022-07-23T04:19:04;6.67;;;5.40;;
15667;SDS011;7934;48.710;9.024;2022-07-23T04:21:31;5.10;;;4.63;;
15667;SDS011;7934;48.710;9.024;2022-07-23T04:23:58;5.70;;;5.30;;
15667;SDS011;7934;48.710;9.024;2022-07-23T04:26:25;5.70;;;5.20;;
15667;SDS011;7934;48.710;9.024;2022-07-23T04:28:52;5.43;;;5.03;;
15667;SDS011;7934;48.710;9.024;2022-07-23T04:31:20;7.63;;;4.90;;
15667;SDS011;7934;48.710;9.024;2022-07-23T04:33:48;5.77;;;4.97;;
15667;SDS011;7934;48.710;9.024;2022-07-23T04:36:15;5.43;;;5.03;;
15667;SDS011;7934;48.710;9.024;2022-07-23T04:38:42;5.40;;;5.07;;
15667;SDS011;7934;48.710;9.024;2022-07-23T04:41:10;5.57;;;4.70;;
15667;SDS011;7934;48.710;9.024;2022-07-23T04:43:37;5.53;;;5.03;;
15667;SDS011;7934;48.710;9.024;2022-07-23T04:46:04;5.73;;;4.90;;
15667;SDS011;7934;48.710;9.024;2022-07-23T04:48:31;7.47;;;5.70;;
15667;SDS011;7934;48.710;9.024;2022-07-23T04:51:00;6.17;;;5.60;;
15667;SDS011;7934;48.710;9.024;2022-07-23T04:53:27;5.73;;;5.27;;
15667;SDS011;7934;48.710;9.024;2022-07-23T04:55:54;6.63;;;5.20;;
15667;SDS011;7934;48.710;9.024;2022-07-23T04:58:21;5.63;;;5.10;;
15667;SDS011;7934;48.710;9.024;2022-07-23T05:00:48;5.20;;;4.90;;
15667;SDS011;7934;48.710;9.024;2022-07-23T05:03:16;5.30;;;4.90;;
15667;SDS011;7934;48.710;9.024;2022-07-23T05:05:43;6.63;;;5.03;;
15667;SDS011;7934;48.710;9.024;2022-07-23T05:08:11;5.85;;;5.30;;
15667;SDS011;7934;48.710;9.024;2022-07-23T05:10:38;6.27;;;4.93;;
15667;SDS011;7934;48.710;9.024;2022-07-23T05:13:05;8.53;;;5.13;;
15667;SDS011;7934;48.710;9.024;2022-07-23T05:15:33;5.03;;;4.53;;
15667;SDS011;7934;48.710;9.024;2022-07-23T05:18:00;5.43;;;5.10;;
15667;SDS011;7934;48.710;9.024;2022-07-23T05:20:27;5.00;;;4.60;;
15667;SDS011;7934;48.710;9.024;2022-07-23T05:22:54;5.03;;;4.53;;
15667;SDS011;7934;48.710;9.024;2022-07-23T05:25:23;6.80;;;5.00;;
15667;SDS011;7934;48.710;9.024;2022-07-23T05:27:50;5.23;;;4.73;;
15667;SDS011;7934;48.710;9.024;2022-07-23T05:30:17;7.17;;;4.90;;
15667;SDS011;7934;48.710;9.024;2022-07-23T05:32:44;5.33;;;4.93;;
15667;SDS011;7934;48.710;9.024;2022-07-23T05:35:11;4.97;;;4.67;;
15667;SDS011;7934;48.710;9.024;2022-07-23T05:37:38;7.77;;;5.50;;
15667;SDS011;7934;48.710;9.024;2022-07-23T05:40:06;5.23;;;4.83;;
15667;SDS011;7934;48.710;9.024;2022-07-23T05:42:35;5.53;;;5.00;;
15667;SDS011;7934;48.710;9.024;2022-07-23T05:45:03;5.10;;;4.80;;
15667;SDS011;7934;48.710;9.024;2022-07-23T05:47:38;6.73;;;5.27;;
15667;SDS011;7934;48.710;9.024;2022-07-23T05:50:05;5.33;;;4.83;;
15667;SDS011;7934;48.710;9.024;2022-07-23T05:52:33;5.50;;;5.10;;
15667;SDS011;7934;48.710;9.024;2022-07-23T05:55:00;5.47;;;5.07;;
15667;SDS011;7934;48.710;9.024;2022-07-23T05:57:27;5.63;;;5.00;;
15667;SDS011;7934;48.710;9.024;2022-07-23T05:59:56;5.57;;;5.13;;
15667;SDS011;7934;48.710;9.024;2022-07-23T06:02:23;7.63;;;5.50;;
15667;SDS011;7934;48.710;9.024;2022-07-23T06:04:50;5.13;;;4.83;;
15667;SDS011;7934;48.710;9.024;2022-07-23T06:07:17;5.47;;;5.07;;
15667;SDS011;7934;48.710;9.024;2022-07-23T06:09:45;5.23;;;4.73;;
15667;SDS011;7934;48.710;9.024;2022-07-23T06:12:14;5.40;;;5.00;;
15667;SDS011;7934;48.710;9.024;2022-07-23T06:14:41;5.57;;;5.27;;
15667;SDS011;7934;48.710;9.024;2022-07-23T06:17:09;5.37;;;5.00;;
15667;SDS011;7934;48.710;9.024;2022-07-23T06:19:37;5.50;;;5.00;;
15667;SDS011;7934;48.710;9.024;2022-07-23T06:22:04;6.90;;;6.00;;
15667;SDS011;7934;48.710;9.024;2022-07-23T06:24:31;6.00;;;5.30;;
15667;SDS011;7934;48.710;9.024;2022-07-23T06:26:58;5.33;;;5.03;;
15667;SDS011;7934;48.710;9.024;2022-07-23T06:29:25;5.87;;;5.17;;
15667;SDS011;7934;48.710;9.024;2022-07-23T06:31:52;5.70;;;5.30;;
15667;SDS011;7934;48.710;9.024;2022-07-23T06:34:21;5.80;;;5.40;;
15667;SDS011;7934;48.710;9.024;2022-07-23T06:36:48;5.43;;;5.03;;
15667;SDS011;7934;48.710;9.024;2022-07-23T06:39:15;5.87;;;5.27;;
15667;SDS011;7934;48.710;9.024;2022-07-23T06:41:42;5.77;;;5.13;;
15667;SDS011;7934;48.710;9.024;2022-07-23T06:44:09;5.77;;;5.30;;
15667;SDS011;7934;48.710;9.024;2022-07-23T06:46:36;5.57;;;5.10;;
15667;SDS011;7934;48.710;9.024;2022-07-23T06:49:04;6.20;;;5.53;;
15667;SDS011;7934;48.710;9.024;2022-07-23T06:51:32;5.80;;;5.40;;
15667;SDS011;7934;48.710;9.024;2022-07-23T06:53:59;5.70;;;5.10;;
15667;SDS011;7934;48.710;9.024;2022-07-23T06:56:26;5.27;;;4.87;;
15667;SDS011;7934;48.710;9.024;2022-07-23T06:58:54;6.00;;;5.60;;
15667;SDS011;7934;48.710;9.024;2022-07-23T07:01:21;5.20;;;4.93;;
15667;SDS011;7934;48.710;9.024;2022-07-23T07:03:48;6.10;;;5.50;;
15667;SDS011;7934;48.710;9.024;2022-07-23T07:06:16;6.73;;;5.67;;
15667;SDS011;7934;48.710;9.024;2022-07-23T07:08:44;5.63;;;5.23;;
15667;SDS011;7934;48.710;9.024;2022-07-23T07:11:11;5.93;;;5.40;;
15667;SDS011;7934;48.710;9.024;2022-07-23T07:13:39;7.23;;;5.67;;
15667;SDS011;7934;48.710;9.024;2022-07-23T07:16:06;5.53;;;5.23;;
15667;SDS011;7934;48.710;9.024;2022-07-23T07:18:33;5.33;;;4.97;;
15667;SDS011;7934;48.710;9.024;2022-07-23T07:21:00;5.73;;;5.27;;
15667;SDS011;7934;48.710;9.024;2022-07-23T07:23:27;5.53;;;5.17;;
15667;SDS011;7934;48.710;9.024;2022-07-23T07:25:56;5.97;;;5.47;;
15667;SDS011;7934;48.710;9.024;2022-07-23T07:28:23;5.93;;;5.43;;
15667;SDS011;7934;48.710;9.024;2022-07-23T07:30:50;7.30;;;6.13;;
15667;SDS011;7934;48.710;9.024;2022-07-23T07:33:17;6.03;;;5.53;;
15667;SDS011;7934;48.710;9.024;2022-07-23T07:35:46;4.83;;;4.53;;
15667;SDS011;7934;48.710;9.024;2022-07-23T07:38:13;5.30;;;4.90;;
15667;SDS011;7934;48.710;9.024;2022-07-23T07:40:40;6.07;;;5.60;;
15667;SDS011;7934;48.710;9.024;2022-07-23T07:43:08;5.63;;;5.10;;
15667;SDS011;7934;48.710;9.024;2022-07-23T07:45:35;8.07;;;4.67;;
15667;SDS011;7934;48.710;9.024;2022-07-23T07:48:03;4.77;;;4.57;;
15667;SDS011;7934;48.710;9.024;2022-07-23T07:50:30;4.90;;;4.47;;
15667;SDS011;7934;48.710;9.024;2022-07-23T07:52:57;4.43;;;4.17;;
15667;SDS011;7934;48.710;9.024;2022-07-23T07:55:24;4.53;;;4.20;;
15667;SDS011;7934;48.710;9.024;2022-07-23T07:57:53;5.07;;;4.70;;
15667;SDS011;7934;48.710;9.024;2022-07-23T08:00:22;4.37;;;4.07;;
15667;SDS011;7934;48.710;9.024;2022-07-23T08:02:49;4.13;;;3.80;;
15667;SDS011;7934;48.710;9.024;2022-07-23T08:05:18;4.37;;;4.10;;
15667;SDS011;7934;48.710;9.024;2022-07-23T08:07:46;4.27;;;4.03;;
15667;SDS011;7934;48.710;9.024;2022-07-23T08:10:13;5.40;;;4.57;;
15667;SDS011;7934;48.710;9.024;2022-07-23T08:12:40;4.43;;;4.13;;
15667;SDS011;7934;48.710;9.024;2022-07-23T08:15:10;4.87;;;4.57;;
15667;SDS011;7934;48.710;9.024;2022-07-23T08:17:39;4.50;;;4.20;;
15667;SDS011;7934;48.710;9.024;2022-07-23T08:20:06;5.33;;;5.03;;
15667;SDS011;7934;48.710;9.024;2022-07-23T08:22:44;5.40;;;5.10;;
15667;SDS011;7934;48.710;9.024;2022-07-23T08:25:11;5.30;;;5.00;;
15667;SDS011;7934;48.710;9.024;2022-07-23T08:27:38;5.13;;;4.73;;
15667;SDS011;7934;48.710;9.024;2022-07-23T08:30:06;4.40;;;4.20;;
15667;SDS011;7934;48.710;9.024;2022-07-23T08:32:48;4.80;;;4.50;;
15667;SDS011;7934;48.710;9.024;2022-07-23T08:35:15;4.87;;;4.53;;
15667;SDS011;7934;48.710;9.024;2022-07-23T08:37:43;5.03;;;4.67;;
15667;SDS011;7934;48.710;9.024;2022-07-23T08:40:10;4.60;;;4.20;;
15667;SDS011;7934;48.710;9.024;2022-07-23T08:42:37;4.57;;;4.10;;
15667;SDS011;7934;48.710;9.024;2022-07-23T08:45:05;3.80;;;3.70;;
15667;SDS011;7934;48.710;9.024;2022-07-23T08:47:33;4.13;;;3.77;;
15667;SDS011;7934;48.710;9.024;2022-07-23T08:50:03;4.10;;;3.90;;
15667;SDS011;7934;48.710;9.024;2022-07-23T08:52:30;4.38;;;4.07;;
15667;SDS011;7934;48.710;9.024;2022-07-23T08:54:57;3.97;;;3.67;;
15667;SDS011;7934;48.710;9.024;2022-07-23T08:57:24;4.20;;;4.00;;
15667;SDS011;7934;48.710;9.024;2022-07-23T08:59:51;4.00;;;3.80;;
15667;SDS011;7934;48.710;9.024;2022-07-23T09:02:19;4.50;;;4.20;;
15667;SDS011;7934;48.710;9.024;2022-07-23T09:04:46;4.63;;;4.23;;
15667;SDS011;7934;48.710;9.024;2022-07-23T09:07:14;4.30;;;4.00;;
15667;SDS011;7934;48.710;9.024;2022-07-23T09:09:41;4.00;;;3.80;;
15667;SDS011;7934;48.710;9.024;2022-07-23T09:12:09;4.15;;;3.95;;
15667;SDS011;7934;48.710;9.024;2022-07-23T09:14:38;3.80;;;3.63;;
15667;SDS011;7934;48.710;9.024;2022-07-23T09:17:12;4.93;;;4.50;;
15667;SDS011;7934;48.710;9.024;2022-07-23T09:19:40;4.00;;;3.70;;
15667;SDS011;7934;48.710;9.024;2022-07-23T09:22:22;4.22;;;3.75;;
15667;SDS011;7934;48.710;9.024;2022-07-23T09:25:02;4.05;;;3.75;;
15667;SDS011;7934;48.710;9.024;2022-07-23T09:27:44;4.25;;;4.05;;
15667;SDS011;7934;48.710;9.024;2022-07-23T09:30:12;4.38;;;4.07;;
15667;SDS011;7934;48.710;9.024;2022-07-23T09:32:39;4.43;;;3.90;;
15667;SDS011;7934;48.710;9.024;2022-07-23T09:35:06;3.95;;;3.75;;
15667;SDS011;7934;48.710;9.024;2022-07-23T09:37:35;4.28;;;3.95;;
15667;SDS011;7934;48.710;9.024;2022-07-23T09:40:05;4.55;;;4.25;;
15667;SDS011;7934;48.710;9.024;2022-07-23T09:42:33;4.47;;;4.18;;
15667;SDS011;7934;48.710;9.024;2022-07-23T09:45:00;3.90;;;3.70;;
15667;SDS011;7934;48.710;9.024;2022-07-23T09:47:28;4.38;;;4.13;;
15667;SDS011;7934;48.710;9.024;2022-07-23T09:49:59;4.43;;;4.15;;
15667;SDS011;7934;48.710;9.024;2022-07-23T09:52:27;4.43;;;4.13;;
15667;SDS011;7934;48.710;9.024;2022-07-23T09:54:59;4.63;;;4.43;;
15667;SDS011;7934;48.710;9.024;2022-07-23T09:57:27;4.88;;;4.47;;
15667;SDS011;7934;48.710;9.024;2022-07-23T09:59:56;4.88;;;4.57;;
15667;SDS011;7934;48.710;9.024;2022-07-23T10:02:24;5.07;;;4.70;;
15667;SDS011;7934;48.710;9.024;2022-07-23T10:04:52;4.97;;;4.22;;
15667;SDS011;7934;48.710;9.024;2022-07-23T10:07:20;5.13;;;4.72;;
15667;SDS011;7934;48.710;9.024;2022-07-23T10:09:48;4.95;;;4.65;;
15667;SDS011;7934;48.710;9.024;2022-07-23T10:12:19;4.82;;;4.53;;
15667;SDS011;7934;48.710;9.024;2022-07-23T10:15:01;4.55;;;4.32;;
15667;SDS011;7934;48.710;9.024;2022-07-23T10:17:29;4.00;;;3.88;;
15667;SDS011;7934;48.710;9.024;2022-07-23T10:19:56;6.32;;;5.78;;
15667;SDS011;7934;48.710;9.024;2022-07-23T10:22:24;4.25;;;4.05;;
15667;SDS011;7934;48.710;9.024;2022-07-23T10:24:53;3.85;;;3.65;;
15667;SDS011;7934;48.710;9.024;2022-07-23T10:27:33;4.22;;;4.03;;
15667;SDS011;7934;48.710;9.024;2022-07-23T10:30:04;4.38;;;4.13;;
15667;SDS011;7934;48.710;9.024;2022-07-23T10:32:37;4.22;;;4.03;;
15667;SDS011;7934;48.710;9.024;2022-07-23T10:35:07;4.43;;;4.20;;
15667;SDS011;7934;48.710;9.024;2022-07-23T10:37:38;4.15;;;4.00;;
15667;SDS011;7934;48.710;9.024;2022-07-23T10:40:09;4.55;;;4.35;;
15667;SDS011;7934;48.710;9.024;2022-07-23T10:42:38;4.20;;;4.00;;
15667;SDS011;7934;48.710;9.024;2022-07-23T10:45:21;4.53;;;4.33;;
15667;SDS011;7934;48.710;9.024;2022-07-23T10:47:49;4.83;;;4.60;;
15667;SDS011;7934;48.710;9.024;2022-07-23T10:50:20;5.00;;;4.23;;
15667;SDS011;7934;48.710;9.024;2022-07-23T10:53:07;4.27;;;3.97;;
15667;SDS011;7934;48.710;9.024;2022-07-23T10:55:40;4.20;;;3.90;;
15667;SDS011;7934;48.710;9.024;2022-07-23T10:58:09;4.28;;;3.97;;
15667;SDS011;7934;48.710;9.024;2022-07-23T11:00:37;4.60;;;4.30;;
15667;SDS011;7934;48.710;9.024;2022-07-23T11:03:04;4.10;;;3.90;;
15667;SDS011;7934;48.710;9.024;2022-07-23T11:05:40;4.00;;;3.80;;
15667;SDS011;7934;48.710;9.024;2022-07-23T11:08:17;4.78;;;4.47;;
15667;SDS011;7934;48.710;9.024;2022-07-23T11:10:46;4.80;;;4.50;;
15667;SDS011;7934;48.710;9.024;2022-07-23T11:13:31;4.00;;;3.83;;
15667;SDS011;7934;48.710;9.024;2022-07-23T11:16:06;4.57;;;4.13;;
15667;SDS011;7934;48.710;9.024;2022-07-23T11:18:52;4.90;;;4.50;;
15667;SDS011;7934;48.710;9.024;2022-07-23T11:24:07;4.93;;;4.53;;
15667;SDS011;7934;48.710;9.024;2022-07-23T11:26:41;4.95;;;4.72;;
15667;SDS011;7934;48.710;9.024;2022-07-23T11:31:58;4.55;;;4.25;;
15667;SDS011;7934;48.710;9.024;2022-07-23T11:34:29;4.85;;;4.55;;
15667;SDS011;7934;48.710;9.024;2022-07-23T11:36:57;4.53;;;4.13;;
15667;SDS011;7934;48.710;9.024;2022-07-23T11:39:25;4.78;;;4.47;;
15667;SDS011;7934;48.710;9.024;2022-07-23T11:41:53;5.03;;;4.72;;
15667;SDS011;7934;48.710;9.024;2022-07-23T11:44:26;5.30;;;4.90;;
15667;SDS011;7934;48.710;9.024;2022-07-23T11:46:54;4.85;;;4.40;;
15667;SDS011;7934;48.710;9.024;2022-07-23T11:49:24;4.55;;;4.32;;
15667;SDS011;7934;48.710;9.024;2022-07-23T11:52:04;5.13;;;4.82;;
15667;SDS011;7934;48.710;9.024;2022-07-23T11:54:31;4.50;;;4.30;;
15667;SDS011;7934;48.710;9.024;2022-07-23T11:56:59;4.93;;;4.63;;
15667;SDS011;7934;48.710;9.024;2022-07-23T11:59:27;4.70;;;4.50;;
15667;SDS011;7934;48.710;9.024;2022-07-23T12:01:56;5.15;;;4.80;;
15667;SDS011;7934;48.710;9.024;2022-07-23T12:04:38;4.72;;;4.18;;
15667;SDS011;7934;48.710;9.024;2022-07-23T12:09:47;4.30;;;4.10;;
15667;SDS011;7934;48.710;9.024;2022-07-23T12:12:14;4.97;;;4.67;;
15667;SDS011;7934;48.710;9.024;2022-07-23T12:14:47;4.60;;;4.23;;
15667;SDS011;7934;48.710;9.024;2022-07-23T12:17:14;5.43;;;5.07;;
15667;SDS011;7934;48.710;9.024;2022-07-23T12:19:42;5.03;;;4.63;;
15667;SDS011;7934;48.710;9.024;2022-07-23T12:22:10;5.20;;;4.70;;
15667;SDS011;7934;48.710;9.024;2022-07-23T12:24:55;4.88;;;4.57;;
15667;SDS011;7934;48.710;9.024;2022-07-23T12:27:22;4.90;;;4.45;;
15667;SDS011;7934;48.710;9.024;2022-07-23T12:29:49;4.97;;;4.60;;
15667;SDS011;7934;48.710;9.024;2022-07-23T12:32:17;5.20;;;4.80;;
15667;SDS011;7934;48.710;9.024;2022-07-23T12:34:47;4.70;;;4.40;;
15667;SDS011;7934;48.710;9.024;2022-07-23T12:37:25;5.10;;;4.80;;
15667;SDS011;7934;48.710;9.024;2022-07-23T12:39:52;4.97;;;4.77;;
15667;SDS011;7934;48.710;9.024;2022-07-23T12:42:20;4.50;;;4.30;;
15667;SDS011;7934;48.710;9.024;2022-07-23T12:45:05;5.47;;;5.07;;
15667;SDS011;7934;48.710;9.024;2022-07-23T12:53:02;5.30;;;5.00;;
15667;SDS011;7934;48.710;9.024;2022-07-23T12:55:29;4.87;;;4.57;;
15667;SDS011;7934;48.710;9.024;2022-07-23T12:58:02;5.77;;;4.90;;
15667;SDS011;7934;48.710;9.024;2022-07-23T13:00:30;4.90;;;4.63;;
15667;SDS011;7934;48.710;9.024;2022-07-23T13:02:57;4.87;;;4.53;;
15667;SDS011;7934;48.710;9.024;2022-07-23T13:05:25;5.20;;;4.80;;
15667;SDS011;7934;48.710;9.024;2022-07-23T13:07:52;4.75;;;4.50;;
15667;SDS011;7934;48.710;9.024;2022-07-23T13:10:20;5.85;;;5.28;;
15667;SDS011;7934;48.710;9.024;2022-07-23T13:12:47;4.90;;;4.70;;
15667;SDS011;7934;48.710;9.024;2022-07-23T13:15:15;4.70;;;4.40;;
15667;SDS011;7934;48.710;9.024;2022-07-23T13:17:42;5.03;;;4.80;;
15667;SDS011;7934;48.710;9.024;2022-07-23T13:20:10;4.70;;;4.43;;
15667;SDS011;7934;48.710;9.024;2022-07-23T13:22:38;4.57;;;4.38;;
15667;SDS011;7934;48.710;9.024;2022-07-23T13:25:05;5.85;;;4.60;;
15667;SDS011;7934;48.710;9.024;2022-07-23T13:27:34;5.18;;;4.88;;
15667;SDS011;7934;48.710;9.024;2022-07-23T13:30:02;5.35;;;4.85;;
15667;SDS011;7934;48.710;9.024;2022-07-23T13:32:29;5.65;;;4.65;;
15667;SDS011;7934;48.710;9.024;2022-07-23T13:34:56;5.20;;;4.80;;
15667;SDS011;7934;48.710;9.024;2022-07-23T13:37:23;5.57;;;5.07;;
15667;SDS011;7934;48.710;9.024;2022-07-23T13:39:51;5.07;;;4.73;;
15667;SDS011;7934;48.710;9.024;2022-07-23T13:42:18;5.70;;;5.20;;
15667;SDS011;7934;48.710;9.024;2022-07-23T13:44:46;5.60;;;5.20;;
15667;SDS011;7934;48.710;9.024;2022-07-23T13:47:14;5.07;;;4.80;;
15667;SDS011;7934;48.710;9.024;2022-07-23T13:49:41;5.27;;;4.97;;
15667;SDS011;7934;48.710;9.024;2022-07-23T13:52:08;5.80;;;5.40;;
15667;SDS011;7934;48.710;9.024;2022-07-23T13:54:35;5.73;;;5.33;;
15667;SDS011;7934;48.710;9.024;2022-07-23T13:57:02;5.73;;;5.33;;
15667;SDS011;7934;48.710;9.024;2022-07-23T13:59:30;5.50;;;5.20;;
15667;SDS011;7934;48.710;9.024;2022-07-23T14:01:58;5.90;;;5.50;;
15667;SDS011;7934;48.710;9.024;2022-07-23T14:04:25;5.80;;;5.40;;
15667;SDS011;7934;48.710;9.024;2022-07-23T14:06:52;5.80;;;5.40;;
15667;SDS011;7934;48.710;9.024;2022-07-23T14:09:20;5.77;;;5.37;;
15667;SDS011;7934;48.710;9.024;2022-07-23T14:11:47;5.93;;;5.53;;
15667;SDS011;7934;48.710;9.024;2022-07-23T14:14:15;5.87;;;5.40;;
15667;SDS011;7934;48.710;9.024;2022-07-23T14:16:42;5.40;;;5.05;;
15667;SDS011;7934;48.710;9.024;2022-07-23T14:19:11;6.37;;;5.77;;
15667;SDS011;7934;48.710;9.024;2022-07-23T14:21:38;7.97;;;5.37;;
15667;SDS011;7934;48.710;9.024;2022-07-23T14:24:06;6.30;;;5.83;;
15667;SDS011;7934;48.710;9.024;2022-07-23T14:26:33;5.80;;;5.22;;
15667;SDS011;7934;48.710;9.024;2022-07-23T14:29:00;5.73;;;5.33;;
15667;SDS011;7934;48.710;9.024;2022-07-23T14:31:27;5.97;;;5.50;;
15667;SDS011;7934;48.710;9.024;2022-07-23T14:33:55;5.83;;;5.30;;
15667;SDS011;7934;48.710;9.024;2022-07-23T14:36:23;5.80;;;5.00;;
15667;SDS011;7934;48.710;9.024;2022-07-23T14:38:50;6.23;;;5.83;;
15667;SDS011;7934;48.710;9.024;2022-07-23T14:41:17;5.50;;;5.10;;
15667;SDS011;7934;48.710;9.024;2022-07-23T14:43:44;6.00;;;5.60;;
15667;SDS011;7934;48.710;9.024;2022-07-23T14:46:12;5.80;;;5.43;;
15667;SDS011;7934;48.710;9.024;2022-07-23T14:48:39;5.83;;;5.33;;
15667;SDS011;7934;48.710;9.024;2022-07-23T14:51:06;5.07;;;4.77;;
15667;SDS011;7934;48.710;9.024;2022-07-23T14:53:35;8.13;;;5.87;;
15667;SDS011;7934;48.710;9.024;2022-07-23T14:56:02;7.33;;;5.77;;
15667;SDS011;7934;48.710;9.024;2022-07-23T14:58:29;6.43;;;5.67;;
15667;SDS011;7934;48.710;9.024;2022-07-23T15:00:57;5.50;;;5.20;;
15667;SDS011;7934;48.710;9.024;2022-07-23T15:03:24;6.50;;;6.10;;
15667;SDS011;7934;48.710;9.024;2022-07-23T15:05:51;6.23;;;5.73;;
15667;SDS011;7934;48.710;9.024;2022-07-23T15:08:18;5.65;;;5.22;;
15667;SDS011;7934;48.710;9.024;2022-07-23T15:10:47;5.90;;;5.50;;
15667;SDS011;7934;48.710;9.024;2022-07-23T15:13:14;7.43;;;5.27;;
15667;SDS011;7934;48.710;9.024;2022-07-23T15:15:44;5.90;;;5.50;;
15667;SDS011;7934;48.710;9.024;2022-07-23T15:18:12;5.40;;;5.10;;
15667;SDS011;7934;48.710;9.024;2022-07-23T15:20:39;6.77;;;5.20;;